Terminal Aerodrome Forecast
Issued by NWS

Current Version | Previous Version | Graphics & Text | Print | Product List | Glossary On
Versions: 1 2 3 4 5 6 7 8 9 10 11 12 13 14 15 16 17 18 19 20 21 22 23 24
000
FTUS41 KRLX 221724
TAFCKB
TAF
KCKB 221724Z 2218/2318 34006KT 5SM SHRA SCT035
     FM222000 34006KT 5SM SHRA VCTS BKN029CB
     FM230100 36004KT P6SM BKN040
     FM230700 VRB02KT 5SM BR BKN016
     FM231400 VRB03KT P6SM BKN035=

USA.gov is the U.S. government's official web portal to all federal, state and local government web resources and services.